sensor_id;sensor_type;location;lat;lon;timestamp;pressure;altitude;pressure_sealevel;temperature;humidity
43707;BME280;61348;53.392;-6.248;2023-05-12T00:08:00;101693.53;;;10.87;85.82
43707;BME280;61348;53.392;-6.248;2023-05-12T00:10:27;101692.72;;;10.87;86.08
43707;BME280;61348;53.392;-6.248;2023-05-12T00:12:54;101695.00;;;10.85;86.18
43707;BME280;61348;53.392;-6.248;2023-05-12T00:15:21;101693.19;;;10.80;86.17
43707;BME280;61348;53.392;-6.248;2023-05-12T00:17:48;101690.41;;;10.80;86.40
43707;BME280;61348;53.392;-6.248;2023-05-12T00:24:06;101687.50;;;10.77;86.29
43707;BME280;61348;53.392;-6.248;2023-05-12T00:26:36;101700.84;;;10.75;86.56
43707;BME280;61348;53.392;-6.248;2023-05-12T00:29:02;101701.50;;;10.72;86.58
43707;BME280;61348;53.392;-6.248;2023-05-12T00:31:31;101702.81;;;10.74;86.96
43707;BME280;61348;53.392;-6.248;2023-05-12T00:38:46;101709.00;;;10.80;86.10
43707;BME280;61348;53.392;-6.248;2023-05-12T00:41:34;101714.38;;;10.76;86.23
43707;BME280;61348;53.392;-6.248;2023-05-12T00:44:04;101716.81;;;10.69;86.32
43707;BME280;61348;53.392;-6.248;2023-05-12T00:46:30;101727.38;;;10.67;86.59
43707;BME280;61348;53.392;-6.248;2023-05-12T00:48:57;101727.38;;;10.67;86.77
43707;BME280;61348;53.392;-6.248;2023-05-12T00:51:24;101725.75;;;10.66;86.69
43707;BME280;61348;53.392;-6.248;2023-05-12T00:53:53;101721.69;;;10.64;86.56
43707;BME280;61348;53.392;-6.248;2023-05-12T00:56:20;101726.69;;;10.62;86.68
43707;BME280;61348;53.392;-6.248;2023-05-12T00:58:48;101730.44;;;10.57;86.78
43707;BME280;61348;53.392;-6.248;2023-05-12T01:01:14;101722.78;;;10.54;86.90
43707;BME280;61348;53.392;-6.248;2023-05-12T01:03:42;101728.66;;;10.53;86.96
43707;BME280;61348;53.392;-6.248;2023-05-12T01:06:16;101720.63;;;10.51;86.79
43707;BME280;61348;53.392;-6.248;2023-05-12T01:08:43;101727.63;;;10.49;86.93
43707;BME280;61348;53.392;-6.248;2023-05-12T01:11:11;101727.16;;;10.47;87.00
43707;BME280;61348;53.392;-6.248;2023-05-12T01:13:37;101734.97;;;10.45;87.17
43707;BME280;61348;53.392;-6.248;2023-05-12T01:16:08;101740.50;;;10.45;87.27
43707;BME280;61348;53.392;-6.248;2023-05-12T01:18:37;101728.59;;;10.44;87.18
43707;BME280;61348;53.392;-6.248;2023-05-12T01:21:09;101736.44;;;10.42;87.04
43707;BME280;61348;53.392;-6.248;2023-05-12T01:23:41;101736.09;;;10.44;87.06
43707;BME280;61348;53.392;-6.248;2023-05-12T01:26:10;101734.97;;;10.45;86.90
43707;BME280;61348;53.392;-6.248;2023-05-12T01:28:38;101740.31;;;10.41;86.71
43707;BME280;61348;53.392;-6.248;2023-05-12T01:39:54;101740.56;;;10.22;86.74
43707;BME280;61348;53.392;-6.248;2023-05-12T01:42:42;101739.44;;;10.23;86.76
43707;BME280;61348;53.392;-6.248;2023-05-12T01:45:09;101735.16;;;10.17;86.87
43707;BME280;61348;53.392;-6.248;2023-05-12T01:51:06;101739.72;;;10.13;87.12
43707;BME280;61348;53.392;-6.248;2023-05-12T01:58:12;101753.81;;;10.03;87.23
43707;BME280;61348;53.392;-6.248;2023-05-12T02:00:40;101759.63;;;10.02;87.14
43707;BME280;61348;53.392;-6.248;2023-05-12T02:12:24;101761.09;;;9.99;87.13
43707;BME280;61348;53.392;-6.248;2023-05-12T02:15:06;101764.47;;;9.96;86.77
43707;BME280;61348;53.392;-6.248;2023-05-12T02:17:32;101768.91;;;9.97;86.99
43707;BME280;61348;53.392;-6.248;2023-05-12T02:19:59;101775.94;;;10.03;86.89
43707;BME280;61348;53.392;-6.248;2023-05-12T02:22:26;101772.50;;;10.06;86.95
43707;BME280;61348;53.392;-6.248;2023-05-12T02:24:55;101782.78;;;10.06;86.76
43707;BME280;61348;53.392;-6.248;2023-05-12T02:27:22;101789.44;;;10.05;86.71
43707;BME280;61348;53.392;-6.248;2023-05-12T02:29:49;101787.31;;;10.02;86.89
43707;BME280;61348;53.392;-6.248;2023-05-12T02:32:16;101787.94;;;9.99;86.88
43707;BME280;61348;53.392;-6.248;2023-05-12T02:34:43;101799.81;;;9.99;86.97
43707;BME280;61348;53.392;-6.248;2023-05-12T02:37:11;101787.94;;;9.99;87.09
43707;BME280;61348;53.392;-6.248;2023-05-12T02:39:37;101787.09;;;9.98;87.00
43707;BME280;61348;53.392;-6.248;2023-05-12T02:42:04;101794.09;;;9.96;86.98
43707;BME280;61348;53.392;-6.248;2023-05-12T02:44:31;101800.28;;;9.93;87.02
43707;BME280;61348;53.392;-6.248;2023-05-12T02:46:58;101804.47;;;9.90;87.06
43707;BME280;61348;53.392;-6.248;2023-05-12T02:49:25;101797.94;;;9.86;86.84
43707;BME280;61348;53.392;-6.248;2023-05-12T03:00:09;101800.88;;;9.67;87.28
43707;BME280;61348;53.392;-6.248;2023-05-12T03:02:56;101802.84;;;9.67;87.37
43707;BME280;61348;53.392;-6.248;2023-05-12T03:09:57;101805.72;;;9.62;87.57
43707;BME280;61348;53.392;-6.248;2023-05-12T03:12:32;101808.00;;;9.60;87.54
43707;BME280;61348;53.392;-6.248;2023-05-12T03:15:02;101815.16;;;9.61;87.74
43707;BME280;61348;53.392;-6.248;2023-05-12T03:17:30;101815.16;;;9.61;87.74
43707;BME280;61348;53.392;-6.248;2023-05-12T03:23:37;101809.44;;;9.57;87.82
43707;BME280;61348;53.392;-6.248;2023-05-12T03:26:04;101823.56;;;9.56;87.90
43707;BME280;61348;53.392;-6.248;2023-05-12T03:28:33;101814.25;;;9.52;88.04
43707;BME280;61348;53.392;-6.248;2023-05-12T03:31:00;101811.81;;;9.50;88.32
43707;BME280;61348;53.392;-6.248;2023-05-12T03:33:27;101811.00;;;9.50;88.49
43707;BME280;61348;53.392;-6.248;2023-05-12T03:35:56;101813.44;;;9.51;88.50
43707;BME280;61348;53.392;-6.248;2023-05-12T03:38:23;101812.63;;;9.51;88.74
43707;BME280;61348;53.392;-6.248;2023-05-12T03:40:50;101813.16;;;9.53;88.45
43707;BME280;61348;53.392;-6.248;2023-05-12T03:43:18;101809.22;;;9.54;88.44
43707;BME280;61348;53.392;-6.248;2023-05-12T03:45:44;101815.59;;;9.54;88.46
43707;BME280;61348;53.392;-6.248;2023-05-12T03:48:11;101818.03;;;9.56;88.39
43707;BME280;61348;53.392;-6.248;2023-05-12T03:50:38;101813.53;;;9.60;88.23
43707;BME280;61348;53.392;-6.248;2023-05-12T03:53:07;101822.31;;;9.62;88.10
43707;BME280;61348;53.392;-6.248;2023-05-12T03:55:33;101828.47;;;9.59;88.13
43707;BME280;61348;53.392;-6.248;2023-05-12T03:58:01;101822.44;;;9.57;88.19
43707;BME280;61348;53.392;-6.248;2023-05-12T04:00:28;101828.28;;;9.55;88.19
43707;BME280;61348;53.392;-6.248;2023-05-12T04:02:54;101821.22;;;9.49;88.27
43707;BME280;61348;53.392;-6.248;2023-05-12T04:05:21;101829.31;;;9.46;88.44
43707;BME280;61348;53.392;-6.248;2023-05-12T04:07:49;101829.94;;;9.43;88.58
43707;BME280;61348;53.392;-6.248;2023-05-12T04:10:16;101837.72;;;9.41;88.76
43707;BME280;61348;53.392;-6.248;2023-05-12T04:12:43;101848.78;;;9.41;88.78
43707;BME280;61348;53.392;-6.248;2023-05-12T04:15:10;101843.25;;;9.41;89.08
43707;BME280;61348;53.392;-6.248;2023-05-12T04:17:40;101844.09;;;9.41;89.07
43707;BME280;61348;53.392;-6.248;2023-05-12T04:20:07;101849.63;;;9.41;89.17
43707;BME280;61348;53.392;-6.248;2023-05-12T04:22:34;101858.22;;;9.40;89.37
43707;BME280;61348;53.392;-6.248;2023-05-12T04:25:02;101858.22;;;9.40;89.41
43707;BME280;61348;53.392;-6.248;2023-05-12T04:27:28;101855.97;;;9.42;89.58
43707;BME280;61348;53.392;-6.248;2023-05-12T04:29:55;101861.50;;;9.42;89.51
43707;BME280;61348;53.392;-6.248;2023-05-12T04:32:22;101865.38;;;9.41;89.33
43707;BME280;61348;53.392;-6.248;2023-05-12T04:34:48;101867.03;;;9.42;89.63
43707;BME280;61348;53.392;-6.248;2023-05-12T04:37:19;101874.16;;;9.43;89.46
43707;BME280;61348;53.392;-6.248;2023-05-12T04:39:47;101872.56;;;9.42;89.64
43707;BME280;61348;53.392;-6.248;2023-05-12T04:42:14;101873.38;;;9.42;89.63
43707;BME280;61348;53.392;-6.248;2023-05-12T04:44:41;101870.91;;;9.41;89.74
43707;BME280;61348;53.392;-6.248;2023-05-12T04:47:07;101866.19;;;9.41;89.91
43707;BME280;61348;53.392;-6.248;2023-05-12T04:49:34;101881.44;;;9.39;90.00
43707;BME280;61348;53.392;-6.248;2023-05-12T04:56:02;101887.47;;;9.41;89.78
43707;BME280;61348;53.392;-6.248;2023-05-12T05:03:34;101892.00;;;9.37;89.63
43707;BME280;61348;53.392;-6.248;2023-05-12T05:06:21;101888.72;;;9.35;89.70
43707;BME280;61348;53.392;-6.248;2023-05-12T05:08:49;101898.97;;;9.34;89.86
43707;BME280;61348;53.392;-6.248;2023-05-12T05:11:17;101887.59;;;9.36;90.04
43707;BME280;61348;53.392;-6.248;2023-05-12T05:13:46;101891.69;;;9.38;90.11
43707;BME280;61348;53.392;-6.248;2023-05-12T05:16:13;101893.84;;;9.41;90.27
43707;BME280;61348;53.392;-6.248;2023-05-12T05:18:39;101905.59;;;9.47;90.41
43707;BME280;61348;53.392;-6.248;2023-05-12T05:21:12;101901.41;;;9.49;90.36
43707;BME280;61348;53.392;-6.248;2023-05-12T05:23:41;101911.03;;;9.52;90.63
43707;BME280;61348;53.392;-6.248;2023-05-12T05:26:08;101918.69;;;9.55;90.55
43707;BME280;61348;53.392;-6.248;2023-05-12T05:28:35;101924.13;;;9.60;90.35
43707;BME280;61348;53.392;-6.248;2023-05-12T05:31:02;101930.66;;;9.64;90.60
43707;BME280;61348;53.392;-6.248;2023-05-12T05:33:29;101931.69;;;9.68;90.81
43707;BME280;61348;53.392;-6.248;2023-05-12T05:35:56;101935.75;;;9.70;90.62
43707;BME280;61348;53.392;-6.248;2023-05-12T05:38:22;101936.47;;;9.76;91.01
43707;BME280;61348;53.392;-6.248;2023-05-12T05:40:54;101949.06;;;9.82;91.05
43707;BME280;61348;53.392;-6.248;2023-05-12T05:43:21;101957.25;;;9.87;91.01
43707;BME280;61348;53.392;-6.248;2023-05-12T05:45:49;101956.31;;;9.92;91.13
43707;BME280;61348;53.392;-6.248;2023-05-12T05:48:16;101964.81;;;9.95;91.24
43707;BME280;61348;53.392;-6.248;2023-05-12T05:54:36;101970.94;;;10.06;91.34
43707;BME280;61348;53.392;-6.248;2023-05-12T05:57:03;101967.22;;;10.10;91.41
43707;BME280;61348;53.392;-6.248;2023-05-12T05:59:30;101975.94;;;10.17;91.62
43707;BME280;61348;53.392;-6.248;2023-05-12T06:01:57;101985.75;;;10.23;91.91
43707;BME280;61348;53.392;-6.248;2023-05-12T06:04:44;101988.59;;;10.32;91.84
43707;BME280;61348;53.392;-6.248;2023-05-12T06:07:34;101999.09;;;10.44;91.86
43707;BME280;61348;53.392;-6.248;2023-05-12T06:14:50;101996.34;;;10.66;91.77
43707;BME280;61348;53.392;-6.248;2023-05-12T06:17:37;102000.31;;;10.73;91.77
43707;BME280;61348;53.392;-6.248;2023-05-12T06:20:25;101994.00;;;10.81;92.01
43707;BME280;61348;53.392;-6.248;2023-05-12T06:22:52;101990.81;;;10.88;92.18
43707;BME280;61348;53.392;-6.248;2023-05-12T06:25:36;101997.31;;;10.92;92.17
43707;BME280;61348;53.392;-6.248;2023-05-12T06:28:03;102001.91;;;10.96;92.47
43707;BME280;61348;53.392;-6.248;2023-05-12T06:30:32;102002.09;;;11.00;92.52
43707;BME280;61348;53.392;-6.248;2023-05-12T06:32:59;102009.44;;;11.05;92.90
43707;BME280;61348;53.392;-6.248;2023-05-12T06:35:26;102012.41;;;11.08;93.20
43707;BME280;61348;53.392;-6.248;2023-05-12T06:37:53;102014.56;;;11.11;93.12
43707;BME280;61348;53.392;-6.248;2023-05-12T06:40:20;102013.28;;;11.17;93.45
43707;BME280;61348;53.392;-6.248;2023-05-12T06:42:46;102013.44;;;11.21;93.39
43707;BME280;61348;53.392;-6.248;2023-05-12T06:45:13;102019.38;;;11.28;93.78
43707;BME280;61348;53.392;-6.248;2023-05-12T06:47:40;102021.19;;;11.32;93.84
43707;BME280;61348;53.392;-6.248;2023-05-12T06:50:07;102026.59;;;11.37;93.97
43707;BME280;61348;53.392;-6.248;2023-05-12T06:52:34;102021.72;;;11.43;94.12
43707;BME280;61348;53.392;-6.248;2023-05-12T06:55:01;102023.09;;;11.54;94.16
43707;BME280;61348;53.392;-6.248;2023-05-12T06:57:28;102023.41;;;11.61;94.34
43707;BME280;61348;53.392;-6.248;2023-05-12T06:59:55;102023.97;;;11.72;94.28
43707;BME280;61348;53.392;-6.248;2023-05-12T07:02:21;102028.09;;;11.83;94.39
43707;BME280;61348;53.392;-6.248;2023-05-12T07:04:48;102030.56;;;11.93;94.37
43707;BME280;61348;53.392;-6.248;2023-05-12T07:07:18;102045.78;;;12.04;94.22
43707;BME280;61348;53.392;-6.248;2023-05-12T07:09:44;102037.47;;;12.12;94.48
43707;BME280;61348;53.392;-6.248;2023-05-12T07:12:11;102043.53;;;12.23;94.53
43707;BME280;61348;53.392;-6.248;2023-05-12T07:14:48;102049.88;;;12.32;94.25
43707;BME280;61348;53.392;-6.248;2023-05-12T07:17:15;102049.09;;;12.40;94.56
43707;BME280;61348;53.392;-6.248;2023-05-12T07:19:43;102046.63;;;12.47;94.52
43707;BME280;61348;53.392;-6.248;2023-05-12T07:29:55;102052.84;;;12.61;94.60
43707;BME280;61348;53.392;-6.248;2023-05-12T07:32:22;102050.91;;;12.70;94.58
43707;BME280;61348;53.392;-6.248;2023-05-12T07:34:48;102062.50;;;12.81;94.90
43707;BME280;61348;53.392;-6.248;2023-05-12T07:40:25;102062.16;;;12.91;94.83
43707;BME280;61348;53.392;-6.248;2023-05-12T07:42:52;102059.38;;;12.91;94.85
43707;BME280;61348;53.392;-6.248;2023-05-12T07:45:19;102061.63;;;12.98;94.54
43707;BME280;61348;53.392;-6.248;2023-05-12T07:47:49;102062.47;;;12.98;94.80
43707;BME280;61348;53.392;-6.248;2023-05-12T07:53:44;102065.59;;;12.97;94.47
43707;BME280;61348;53.392;-6.248;2023-05-12T08:00:19;102079.97;;;12.99;94.38
43707;BME280;61348;53.392;-6.248;2023-05-12T08:06:28;102077.50;;;13.23;94.18
43707;BME280;61348;53.392;-6.248;2023-05-12T08:08:55;102090.38;;;13.36;94.62
43707;BME280;61348;53.392;-6.248;2023-05-12T08:24:15;102113.28;;;13.88;93.22
43707;BME280;61348;53.392;-6.248;2023-05-12T08:34:17;102108.09;;;13.78;92.26
43707;BME280;61348;53.392;-6.248;2023-05-12T08:45:06;102122.34;;;13.76;91.73
43707;BME280;61348;53.392;-6.248;2023-05-12T08:47:33;102131.84;;;13.75;91.21
43707;BME280;61348;53.392;-6.248;2023-05-12T08:50:04;102126.63;;;13.74;90.93
43707;BME280;61348;53.392;-6.248;2023-05-12T08:52:37;102128.75;;;13.68;90.67
43707;BME280;61348;53.392;-6.248;2023-05-12T08:55:05;102140.06;;;13.63;90.48
43707;BME280;61348;53.392;-6.248;2023-05-12T08:57:36;102139.25;;;13.63;90.33
43707;BME280;61348;53.392;-6.248;2023-05-12T09:00:17;102136.00;;;13.61;89.97
43707;BME280;61348;53.392;-6.248;2023-05-12T09:03:06;102138.78;;;13.52;89.74
43707;BME280;61348;53.392;-6.248;2023-05-12T09:05:43;102154.38;;;13.45;89.73
43707;BME280;61348;53.392;-6.248;2023-05-12T09:08:10;102143.53;;;13.43;89.32
43707;BME280;61348;53.392;-6.248;2023-05-12T09:10:46;102145.66;;;13.46;89.46
43707;BME280;61348;53.392;-6.248;2023-05-12T09:13:22;102140.41;;;13.53;89.30
43707;BME280;61348;53.392;-6.248;2023-05-12T09:19:26;102144.66;;;13.59;88.67
43707;BME280;61348;53.392;-6.248;2023-05-12T09:26:02;102149.72;;;13.66;88.29
43707;BME280;61348;53.392;-6.248;2023-05-12T09:28:36;102153.63;;;13.73;88.31
43707;BME280;61348;53.392;-6.248;2023-05-12T09:34:54;102161.91;;;13.90;87.35
43707;BME280;61348;53.392;-6.248;2023-05-12T09:37:29;102165.50;;;13.91;87.08
43707;BME280;61348;53.392;-6.248;2023-05-12T09:43:44;102169.13;;;13.91;86.67
43707;BME280;61348;53.392;-6.248;2023-05-12T09:49:27;102181.91;;;13.84;86.25
43707;BME280;61348;53.392;-6.248;2023-05-12T09:52:00;102179.78;;;13.81;86.52
43707;BME280;61348;53.392;-6.248;2023-05-12T10:02:05;102176.00;;;13.85;85.78
43707;BME280;61348;53.392;-6.248;2023-05-12T10:07:29;102175.97;;;13.94;85.35
43707;BME280;61348;53.392;-6.248;2023-05-12T10:20:51;102197.47;;;14.23;84.45
43707;BME280;61348;53.392;-6.248;2023-05-12T10:23:19;102187.44;;;14.30;84.15
43707;BME280;61348;53.392;-6.248;2023-05-12T10:25:46;102188.09;;;14.36;83.76
43707;BME280;61348;53.392;-6.248;2023-05-12T10:28:13;102183.34;;;14.36;83.30
43707;BME280;61348;53.392;-6.248;2023-05-12T10:30:41;102186.31;;;14.40;83.10
43707;BME280;61348;53.392;-6.248;2023-05-12T10:33:08;102186.31;;;14.40;82.96
43707;BME280;61348;53.392;-6.248;2023-05-12T10:35:38;102189.22;;;14.43;82.48
43707;BME280;61348;53.392;-6.248;2023-05-12T10:38:10;102191.13;;;14.51;82.21
43707;BME280;61348;53.392;-6.248;2023-05-12T10:40:50;102191.44;;;14.58;82.28
43707;BME280;61348;53.392;-6.248;2023-05-12T10:43:22;102183.00;;;14.67;81.89
43707;BME280;61348;53.392;-6.248;2023-05-12T10:46:05;102193.16;;;14.72;81.63
43707;BME280;61348;53.392;-6.248;2023-05-12T10:49:02;102189.34;;;14.76;81.21
43707;BME280;61348;53.392;-6.248;2023-05-12T10:57:53;102193.84;;;14.69;80.98
43707;BME280;61348;53.392;-6.248;2023-05-12T11:00:23;102194.66;;;14.69;80.87
43707;BME280;61348;53.392;-6.248;2023-05-12T11:02:53;102204.81;;;14.65;80.55
43707;BME280;61348;53.392;-6.248;2023-05-12T11:05:32;102201.56;;;14.63;80.41
43707;BME280;61348;53.392;-6.248;2023-05-12T11:08:00;102203.34;;;14.68;80.24
43707;BME280;61348;53.392;-6.248;2023-05-12T11:10:28;102193.16;;;14.72;80.36
43707;BME280;61348;53.392;-6.248;2023-05-12T11:12:59;102199.69;;;14.76;80.22
43707;BME280;61348;53.392;-6.248;2023-05-12T11:20:25;102203.66;;;14.95;79.73
43707;BME280;61348;53.392;-6.248;2023-05-12T11:28:09;102199.41;;;15.10;79.61
43707;BME280;61348;53.392;-6.248;2023-05-12T11:30:57;102204.88;;;15.27;79.25
43707;BME280;61348;53.392;-6.248;2023-05-12T11:33:23;102201.50;;;15.34;78.88
43707;BME280;61348;53.392;-6.248;2023-05-12T11:35:50;102210.16;;;15.41;78.82
43707;BME280;61348;53.392;-6.248;2023-05-12T11:38:28;102212.41;;;15.47;78.58
43707;BME280;61348;53.392;-6.248;2023-05-12T11:40:56;102213.50;;;15.55;78.45
43707;BME280;61348;53.392;-6.248;2023-05-12T11:43:23;102215.59;;;15.58;77.77
43707;BME280;61348;53.392;-6.248;2023-05-12T11:45:50;102219.00;;;15.63;77.58
43707;BME280;61348;53.392;-6.248;2023-05-12T11:48:16;102213.94;;;15.90;77.36
43707;BME280;61348;53.392;-6.248;2023-05-12T11:50:44;102211.44;;;16.09;76.73
43707;BME280;61348;53.392;-6.248;2023-05-12T11:53:16;102213.31;;;16.29;76.37
43707;BME280;61348;53.392;-6.248;2023-05-12T11:55:51;102217.38;;;16.31;76.05
43707;BME280;61348;53.392;-6.248;2023-05-12T11:58:21;102217.50;;;16.35;75.93
43707;BME280;61348;53.392;-6.248;2023-05-12T12:00:49;102218.81;;;16.25;75.72
43707;BME280;61348;53.392;-6.248;2023-05-12T12:03:19;102221.38;;;16.30;75.89
43707;BME280;61348;53.392;-6.248;2023-05-12T12:06:01;102215.09;;;16.33;75.57
43707;BME280;61348;53.392;-6.248;2023-05-12T12:08:29;102217.63;;;16.38;75.43
43707;BME280;61348;53.392;-6.248;2023-05-12T12:10:56;102225.44;;;16.45;75.13
43707;BME280;61348;53.392;-6.248;2023-05-12T12:13:24;102221.75;;;16.53;74.81
43707;BME280;61348;53.392;-6.248;2023-05-12T12:15:51;102222.19;;;16.55;74.22
43707;BME280;61348;53.392;-6.248;2023-05-12T12:18:18;102223.47;;;16.70;74.61
43707;BME280;61348;53.392;-6.248;2023-05-12T12:20:48;102232.78;;;16.86;74.13
43707;BME280;61348;53.392;-6.248;2023-05-12T12:23:51;102224.38;;;16.98;73.78
43707;BME280;61348;53.392;-6.248;2023-05-12T12:30:18;102225.78;;;16.92;73.32
43707;BME280;61348;53.392;-6.248;2023-05-12T12:32:45;102231.38;;;16.92;73.07
43707;BME280;61348;53.392;-6.248;2023-05-12T12:35:12;102229.97;;;16.98;72.75
43707;BME280;61348;53.392;-6.248;2023-05-12T12:37:39;102229.69;;;17.15;72.69
43707;BME280;61348;53.392;-6.248;2023-05-12T12:40:07;102231.88;;;17.34;72.46
43707;BME280;61348;53.392;-6.248;2023-05-12T12:42:37;102225.94;;;17.51;71.91
43707;BME280;61348;53.392;-6.248;2023-05-12T12:45:05;102236.41;;;17.66;71.57
43707;BME280;61348;53.392;-6.248;2023-05-12T12:47:35;102229.53;;;17.63;70.78
43707;BME280;61348;53.392;-6.248;2023-05-12T12:53:42;102230.59;;;17.87;70.78
43707;BME280;61348;53.392;-6.248;2023-05-12T12:56:11;102240.44;;;17.81;70.68
43707;BME280;61348;53.392;-6.248;2023-05-12T12:58:38;102240.59;;;17.72;70.19
43707;BME280;61348;53.392;-6.248;2023-05-12T13:09:04;102241.25;;;17.53;70.14
43707;BME280;61348;53.392;-6.248;2023-05-12T13:11:31;102240.41;;;17.65;70.06
43707;BME280;61348;53.392;-6.248;2023-05-12T13:13:59;102236.47;;;17.82;69.59
43707;BME280;61348;53.392;-6.248;2023-05-12T13:16:28;102240.44;;;17.81;69.43
43707;BME280;61348;53.392;-6.248;2023-05-12T13:30:04;102232.34;;;18.07;68.22
43707;BME280;61348;53.392;-6.248;2023-05-12T13:32:33;102244.00;;;18.24;67.96
43707;BME280;61348;53.392;-6.248;2023-05-12T13:38:41;102240.03;;;18.10;67.53
43707;BME280;61348;53.392;-6.248;2023-05-12T13:45:39;102230.13;;;17.85;67.72
43707;BME280;61348;53.392;-6.248;2023-05-12T13:48:26;102233.00;;;17.73;67.99
43707;BME280;61348;53.392;-6.248;2023-05-12T13:50:53;102241.16;;;17.78;68.21
43707;BME280;61348;53.392;-6.248;2023-05-12T13:53:20;102228.88;;;17.98;67.54
43707;BME280;61348;53.392;-6.248;2023-05-12T13:55:50;102229.63;;;17.95;67.28
43707;BME280;61348;53.392;-6.248;2023-05-12T13:58:18;102227.63;;;18.11;67.28
43707;BME280;61348;53.392;-6.248;2023-05-12T14:00:45;102234.72;;;18.36;66.54
43707;BME280;61348;53.392;-6.248;2023-05-12T14:03:14;102240.22;;;18.33;66.58
43707;BME280;61348;53.392;-6.248;2023-05-12T14:05:41;102242.94;;;18.29;65.75
43707;BME280;61348;53.392;-6.248;2023-05-12T14:08:07;102230.25;;;18.35;65.44
43707;BME280;61348;53.392;-6.248;2023-05-12T14:10:34;102235.81;;;18.47;65.74
43707;BME280;61348;53.392;-6.248;2023-05-12T14:13:01;102229.25;;;18.74;65.69
43707;BME280;61348;53.392;-6.248;2023-05-12T14:15:30;102230.72;;;18.68;64.78
43707;BME280;61348;53.392;-6.248;2023-05-12T14:18:18;102228.69;;;18.50;64.73
43707;BME280;61348;53.392;-6.248;2023-05-12T14:20:46;102239.91;;;18.50;64.92
43707;BME280;61348;53.392;-6.248;2023-05-12T14:23:13;102238.72;;;18.66;64.86
43707;BME280;61348;53.392;-6.248;2023-05-12T14:25:40;102229.66;;;18.57;64.39
43707;BME280;61348;53.392;-6.248;2023-05-12T14:28:07;102227.56;;;18.70;64.66
43707;BME280;61348;53.392;-6.248;2023-05-12T14:30:35;102239.03;;;18.80;64.15
43707;BME280;61348;53.392;-6.248;2023-05-12T14:33:03;102234.88;;;18.90;64.29
43707;BME280;61348;53.392;-6.248;2023-05-12T14:35:30;102237.34;;;19.11;64.06
43707;BME280;61348;53.392;-6.248;2023-05-12T14:37:58;102231.72;;;19.11;63.28
43707;BME280;61348;53.392;-6.248;2023-05-12T14:40:30;102241.94;;;19.19;62.78
43707;BME280;61348;53.392;-6.248;2023-05-12T14:42:58;102239.41;;;19.14;63.01
43707;BME280;61348;53.392;-6.248;2023-05-12T14:45:29;102247.06;;;19.17;62.73
43707;BME280;61348;53.392;-6.248;2023-05-12T14:47:57;102239.25;;;19.26;62.87
43707;BME280;61348;53.392;-6.248;2023-05-12T14:50:24;102246.22;;;19.32;63.11
43707;BME280;61348;53.392;-6.248;2023-05-12T14:52:51;102249.34;;;19.46;62.92
43707;BME280;61348;53.392;-6.248;2023-05-12T14:55:19;102251.13;;;19.54;62.19
43707;BME280;61348;53.392;-6.248;2023-05-12T14:57:46;102252.38;;;19.57;62.09
43707;BME280;61348;53.392;-6.248;2023-05-12T15:00:13;102248.47;;;19.61;61.87
43707;BME280;61348;53.392;-6.248;2023-05-12T15:02:42;102253.06;;;19.69;62.11
43707;BME280;61348;53.392;-6.248;2023-05-12T15:05:10;102250.75;;;19.75;61.62
43707;BME280;61348;53.392;-6.248;2023-05-12T15:07:38;102249.78;;;19.86;61.79
43707;BME280;61348;53.392;-6.248;2023-05-12T15:10:05;102245.88;;;20.14;61.61
43707;BME280;61348;53.392;-6.248;2023-05-12T15:15:55;102251.06;;;20.12;60.69
43707;BME280;61348;53.392;-6.248;2023-05-12T15:18:22;102250.59;;;20.10;60.28
43707;BME280;61348;53.392;-6.248;2023-05-12T15:20:50;102256.38;;;20.17;59.75
43707;BME280;61348;53.392;-6.248;2023-05-12T15:23:18;102252.22;;;20.30;59.86
43707;BME280;61348;53.392;-6.248;2023-05-12T15:25:46;102255.97;;;20.37;59.71
43707;BME280;61348;53.392;-6.248;2023-05-12T15:28:14;102256.84;;;20.41;59.43
43707;BME280;61348;53.392;-6.248;2023-05-12T15:30:41;102244.50;;;20.49;59.05
43707;BME280;61348;53.392;-6.248;2023-05-12T15:33:07;102243.25;;;20.47;58.63
43707;BME280;61348;53.392;-6.248;2023-05-12T15:35:35;102240.91;;;20.49;58.75
43707;BME280;61348;53.392;-6.248;2023-05-12T15:38:06;102247.81;;;20.55;58.13
43707;BME280;61348;53.392;-6.248;2023-05-12T15:40:33;102237.78;;;20.54;57.76
43707;BME280;61348;53.392;-6.248;2023-05-12T15:43:01;102233.75;;;20.55;57.42
43707;BME280;61348;53.392;-6.248;2023-05-12T15:45:28;102232.56;;;20.56;56.88
43707;BME280;61348;53.392;-6.248;2023-05-12T15:47:56;102237.03;;;20.57;56.61
43707;BME280;61348;53.392;-6.248;2023-05-12T15:50:23;102238.31;;;20.63;56.10
43707;BME280;61348;53.392;-6.248;2023-05-12T15:52:50;102232.56;;;20.56;56.31
43707;BME280;61348;53.392;-6.248;2023-05-12T15:55:17;102241.75;;;20.53;55.79
43707;BME280;61348;53.392;-6.248;2023-05-12T15:57:45;102234.97;;;20.54;56.27
43707;BME280;61348;53.392;-6.248;2023-05-12T16:00:12;102229.66;;;20.75;55.59
43707;BME280;61348;53.392;-6.248;2023-05-12T16:02:41;102225.09;;;20.93;55.87
43707;BME280;61348;53.392;-6.248;2023-05-12T16:05:09;102219.72;;;21.07;55.25
43707;BME280;61348;53.392;-6.248;2023-05-12T16:07:37;102229.16;;;21.22;55.74
43707;BME280;61348;53.392;-6.248;2023-05-12T16:10:04;102232.69;;;21.45;54.99
43707;BME280;61348;53.392;-6.248;2023-05-12T16:12:31;102222.34;;;21.56;54.87
43707;BME280;61348;53.392;-6.248;2023-05-12T16:15:04;102233.75;;;21.67;54.30
43707;BME280;61348;53.392;-6.248;2023-05-12T16:21:26;102230.00;;;21.56;53.65
43707;BME280;61348;53.392;-6.248;2023-05-12T16:27:52;102224.19;;;21.75;53.40
43707;BME280;61348;53.392;-6.248;2023-05-12T16:30:22;102217.00;;;21.81;53.26
43707;BME280;61348;53.392;-6.248;2023-05-12T16:32:51;102222.59;;;21.77;52.57
43707;BME280;61348;53.392;-6.248;2023-05-12T16:35:21;102221.38;;;21.75;52.48
43707;BME280;61348;53.392;-6.248;2023-05-12T16:37:49;102218.84;;;21.66;51.80
43707;BME280;61348;53.392;-6.248;2023-05-12T16:40:17;102212.47;;;21.40;51.56
43707;BME280;61348;53.392;-6.248;2023-05-12T16:42:45;102214.59;;;21.46;51.99